Yalesville, Connecticut
Current Conditions -  °F | °C
As of 4:53 PM on Thursday 23 Oct 2014 (Local Time) from KMMK Reporting Station
Overcast Overcast  
Wind Chill: 54°   Ceiling: 2100
Heat Index: 54°   Visibility: 10mi
Dew Point: 47°   Wind: 12mph
Humidity: 77%   Direction: 350°N
Pressure: 29.65"   Gusts: 23mph
Location:  41.4596°N, 72.818°W
Report Text: KMMK 232053Z AUTO 35010G20KT 10SM OVC021 12/08 A2965 RMK AO2 PK WND 36026/2001 SLP040 T01220083 53002 TSNO
Loading
Personal Weather Stations






























Interactive Weather Map New forecast layout! Learn more

10-Day Weather Forecast

Advertisements
Track Severe Weather on mobile